Burns, OR (97720)

10:23 PM PDT on August 19, 2014 (GMT -0700)
Burns Municipal | Change Station
CLOSE
Current Station
Airport
Location: Burns,
Elevation: 4170 ft
Nearby Weather Stations

Elev 4170 ft 43.60 °N, 118.96 °W | Updated 30 minutes ago

Clear
Clear
63 °F
Feels Like 63 °F
N
8
Wind Variable Wind from West

Today
High -- | Low -- °F
--% Chance of Precip.
Yesterday
High -- | Low -- °F
Precip. -- in
6:04 AM 7:52 PM
Waning Crescent, 24% visible
Pressure 29.76 in
Visibility 10.0 miles
Clouds Clear
Dew Point 36 °F
Humidity 37%
Rainfall 0.00 in
Snow Depth Not available.
UV 0 out of 12
Pollen 6.10 out of 12
Air Quality Not available.
Flu Activity Not available.
METAR KBNO 200453Z AUTO 28007KT 10SM CLR 17/02 A2988 RMK AO2 SLP078 T01720022 $

More Conditions Fewer Conditions

Pressure 29.76 in
Visibility 10.0 miles
Clouds Clear
Dew Point 36 °F
Humidity 37%
Rainfall 0.00 in
Snow Depth Not available.
UV 0 out of 12
Pollen 6.10 out of 12
Air Quality Not available.
Flu Activity Not available.
METAR KBNO 200453Z AUTO 28007KT 10SM CLR 17/02 A2988 RMK AO2 SLP078 T01720022 $

More Conditions Fewer Conditions

10-Day Weather Forecast

Almanac

Astronomy

Aug. 19, 2014 Rise Set
Actual Time 6:04 AM PDT 7:52 PM PDT
Civil Twilight 5:33 AM PDT 8:22 PM PDT
Nautical Twilight 4:56 AM PDT 8:59 PM PDT
Astronomical Twilight 4:16 AM PDT 9:39 PM PDT
Moon 12:57 AM PDT (8/19) 3:55 PM PDT (8/19)
Length of Visible Light 14h 48m
Length of Day
13h 47m
Tomorrow will be 2m 43s shorter.
Waning Crescent, 24% of the Moon is Illuminated
Aug 20
Waning Crescent
Aug 25
New
Sep 2
First Quarter
Sep 8
Full
Sep 15
Last Quarter

Yesterday's Extremes

State Highs State Lows

Community

WunderPhotos

Upload Photos

1,745,592 photos uploaded!

Nearby

Snow Depth

Station Depth Elevation
Blue Mountain Spring 0 in 5900 ft
Fish Creek 0 in 7900 ft
Bourne 0 in 5800 ft
Madison Butte 0 in 5250 ft
Arbuckle Mountain 0 in 5400 ft

Earthquake Activity

City Distance Mag. Time & Date
No recent earthquake activity has been reported nearby.
Minimum magnitude displayed is 2.5.

Coastal Water Temperatures

Place Temperature
No Stations Reporting

Nearby Weather Stations